Waco's Hourly Summary for Tuesday, April 18, 2017
Hour Temp
(f)
RH
(%)
Solar Rad.
(MJ/m2)
Rainfall
(in)
Wind
(mph)
4/18/2017 12:00 AM 64 90 0 0 1.99
4/18/2017 1:00 AM 65 90 0 0 1.56
4/18/2017 2:00 AM 64 90 0 0 1.48
4/18/2017 3:00 AM 64 90 0 0 2.17
4/18/2017 4:00 AM 63 88 0 0 1.68
4/18/2017 5:00 AM 63 88 0 0 1.47
4/18/2017 6:00 AM 62 90 0 0 1.03
4/18/2017 7:00 AM 63 91 0 0 0.64
4/18/2017 8:00 AM 64 90 0.04 0 0.59
4/18/2017 9:00 AM 65 89 0.25 0 1.98
4/18/2017 10:00 AM 66 87 0.37 0 3.92
4/18/2017 11:00 AM 66 90 0.6 0.01 5.63
4/18/2017 12:00 PM 67 85 1.21 0.01 4.15
4/18/2017 1:00 PM 72 74 1.82 0 3.43
4/18/2017 2:00 PM 73 70 1.31 0 3.91
4/18/2017 3:00 PM 74 63 1.61 0 3.28
4/18/2017 4:00 PM 74 65 1.43 0 3.84
4/18/2017 5:00 PM 77 59 2.2 0 4.26
4/18/2017 6:00 PM 71 69 0.74 0 4.2
4/18/2017 7:00 PM 73 68 0.41 0 2.51
4/18/2017 8:00 PM 71 73 0.08 0 3.41
4/18/2017 9:00 PM 69 80 0 0 3.23
4/18/2017 10:00 PM 67 85 0 0 2.01
4/18/2017 11:00 PM 67 88 0 0 2.78
Data Summary 67 81 12.07 0.02 2.71